sensor_id;sensor_type;location;lat;lon;timestamp;temperature;humidity
16515;DHT22;8370;52.556;7.970;2023-05-07T00:02:25;11.30;99.90
16515;DHT22;8370;52.556;7.970;2023-05-07T00:04:51;11.40;99.90
16515;DHT22;8370;52.556;7.970;2023-05-07T00:07:17;11.40;99.90
16515;DHT22;8370;52.556;7.970;2023-05-07T00:09:43;11.30;99.90
16515;DHT22;8370;52.556;7.970;2023-05-07T00:12:08;11.30;99.90
16515;DHT22;8370;52.556;7.970;2023-05-07T00:14:34;11.30;99.90
16515;DHT22;8370;52.556;7.970;2023-05-07T00:16:59;11.30;99.90
16515;DHT22;8370;52.556;7.970;2023-05-07T00:19:25;11.30;99.90
16515;DHT22;8370;52.556;7.970;2023-05-07T00:21:50;11.20;99.90
16515;DHT22;8370;52.556;7.970;2023-05-07T00:24:18;11.20;99.90
16515;DHT22;8370;52.556;7.970;2023-05-07T00:26:44;11.20;99.90
16515;DHT22;8370;52.556;7.970;2023-05-07T00:29:09;11.20;99.90
16515;DHT22;8370;52.556;7.970;2023-05-07T00:31:35;11.20;99.90
16515;DHT22;8370;52.556;7.970;2023-05-07T00:34:01;11.20;99.90
16515;DHT22;8370;52.556;7.970;2023-05-07T00:36:26;11.20;99.90
16515;DHT22;8370;52.556;7.970;2023-05-07T00:38:54;11.20;99.90
16515;DHT22;8370;52.556;7.970;2023-05-07T00:41:20;11.10;99.90
16515;DHT22;8370;52.556;7.970;2023-05-07T00:43:46;11.10;99.90
16515;DHT22;8370;52.556;7.970;2023-05-07T00:46:13;11.10;99.90
16515;DHT22;8370;52.556;7.970;2023-05-07T00:48:38;11.10;99.90
16515;DHT22;8370;52.556;7.970;2023-05-07T00:51:04;11.10;99.90
16515;DHT22;8370;52.556;7.970;2023-05-07T00:53:30;11.10;99.90
16515;DHT22;8370;52.556;7.970;2023-05-07T00:55:56;11.00;99.90
16515;DHT22;8370;52.556;7.970;2023-05-07T00:58:22;11.10;99.90
16515;DHT22;8370;52.556;7.970;2023-05-07T01:00:48;11.00;99.90
16515;DHT22;8370;52.556;7.970;2023-05-07T01:03:14;11.10;99.90
16515;DHT22;8370;52.556;7.970;2023-05-07T01:05:39;11.10;99.90
16515;DHT22;8370;52.556;7.970;2023-05-07T01:08:06;11.10;99.90
16515;DHT22;8370;52.556;7.970;2023-05-07T01:10:31;11.10;99.90
16515;DHT22;8370;52.556;7.970;2023-05-07T01:12:58;11.10;99.90
16515;DHT22;8370;52.556;7.970;2023-05-07T01:15:25;11.10;99.90
16515;DHT22;8370;52.556;7.970;2023-05-07T01:17:51;11.10;99.90
16515;DHT22;8370;52.556;7.970;2023-05-07T01:20:18;11.00;99.90
16515;DHT22;8370;52.556;7.970;2023-05-07T01:22:44;11.10;99.90
16515;DHT22;8370;52.556;7.970;2023-05-07T01:25:10;11.10;99.90
16515;DHT22;8370;52.556;7.970;2023-05-07T01:27:35;11.00;99.90
16515;DHT22;8370;52.556;7.970;2023-05-07T01:30:05;11.00;99.90
16515;DHT22;8370;52.556;7.970;2023-05-07T01:33:04;11.00;99.90
16515;DHT22;8370;52.556;7.970;2023-05-07T01:35:35;11.00;99.90
16515;DHT22;8370;52.556;7.970;2023-05-07T01:38:02;11.00;99.90
16515;DHT22;8370;52.556;7.970;2023-05-07T01:40:29;11.00;99.90
16515;DHT22;8370;52.556;7.970;2023-05-07T01:42:55;11.00;99.90
16515;DHT22;8370;52.556;7.970;2023-05-07T01:45:21;11.00;99.90
16515;DHT22;8370;52.556;7.970;2023-05-07T01:47:47;11.00;99.90
16515;DHT22;8370;52.556;7.970;2023-05-07T01:50:16;11.00;99.90
16515;DHT22;8370;52.556;7.970;2023-05-07T01:52:42;11.00;99.90
16515;DHT22;8370;52.556;7.970;2023-05-07T01:55:08;11.00;99.90
16515;DHT22;8370;52.556;7.970;2023-05-07T01:57:34;11.10;99.90
16515;DHT22;8370;52.556;7.970;2023-05-07T01:59:59;11.10;99.90
16515;DHT22;8370;52.556;7.970;2023-05-07T02:02:25;11.10;99.90
16515;DHT22;8370;52.556;7.970;2023-05-07T02:04:50;11.10;99.90
16515;DHT22;8370;52.556;7.970;2023-05-07T02:07:16;11.10;99.90
16515;DHT22;8370;52.556;7.970;2023-05-07T02:09:41;11.10;99.90
16515;DHT22;8370;52.556;7.970;2023-05-07T02:12:07;11.10;99.90
16515;DHT22;8370;52.556;7.970;2023-05-07T02:14:32;11.00;99.90
16515;DHT22;8370;52.556;7.970;2023-05-07T02:16:57;11.00;99.90
16515;DHT22;8370;52.556;7.970;2023-05-07T02:19:23;11.00;99.90
16515;DHT22;8370;52.556;7.970;2023-05-07T02:21:49;11.00;99.90
16515;DHT22;8370;52.556;7.970;2023-05-07T02:24:15;10.90;99.90
16515;DHT22;8370;52.556;7.970;2023-05-07T02:26:40;10.90;99.90
16515;DHT22;8370;52.556;7.970;2023-05-07T02:29:06;10.90;99.90
16515;DHT22;8370;52.556;7.970;2023-05-07T02:31:32;10.80;99.90
16515;DHT22;8370;52.556;7.970;2023-05-07T02:33:59;10.80;99.90
16515;DHT22;8370;52.556;7.970;2023-05-07T02:36:24;10.80;99.90
16515;DHT22;8370;52.556;7.970;2023-05-07T02:38:50;10.80;99.90
16515;DHT22;8370;52.556;7.970;2023-05-07T02:41:16;10.80;99.90
16515;DHT22;8370;52.556;7.970;2023-05-07T02:43:41;10.70;99.90
16515;DHT22;8370;52.556;7.970;2023-05-07T02:46:08;10.70;99.90
16515;DHT22;8370;52.556;7.970;2023-05-07T02:48:34;10.70;99.90
16515;DHT22;8370;52.556;7.970;2023-05-07T02:51:00;10.80;99.90
16515;DHT22;8370;52.556;7.970;2023-05-07T02:53:26;10.80;99.90
16515;DHT22;8370;52.556;7.970;2023-05-07T02:55:53;10.70;99.90
16515;DHT22;8370;52.556;7.970;2023-05-07T02:58:18;10.80;99.90
16515;DHT22;8370;52.556;7.970;2023-05-07T03:00:44;10.70;99.90
16515;DHT22;8370;52.556;7.970;2023-05-07T03:03:09;10.80;99.90
16515;DHT22;8370;52.556;7.970;2023-05-07T03:05:36;10.70;99.90
16515;DHT22;8370;52.556;7.970;2023-05-07T03:08:01;10.70;99.90
16515;DHT22;8370;52.556;7.970;2023-05-07T03:10:27;10.70;99.90
16515;DHT22;8370;52.556;7.970;2023-05-07T03:12:52;10.70;99.90
16515;DHT22;8370;52.556;7.970;2023-05-07T03:15:18;10.70;99.90
16515;DHT22;8370;52.556;7.970;2023-05-07T03:17:43;10.70;99.90
16515;DHT22;8370;52.556;7.970;2023-05-07T03:20:09;10.70;99.90
16515;DHT22;8370;52.556;7.970;2023-05-07T03:22:35;10.60;99.90
16515;DHT22;8370;52.556;7.970;2023-05-07T03:25:00;10.60;99.90
16515;DHT22;8370;52.556;7.970;2023-05-07T03:27:26;10.60;99.90
16515;DHT22;8370;52.556;7.970;2023-05-07T03:29:51;10.60;99.90
16515;DHT22;8370;52.556;7.970;2023-05-07T03:32:17;10.60;99.90
16515;DHT22;8370;52.556;7.970;2023-05-07T03:34:42;10.50;99.90
16515;DHT22;8370;52.556;7.970;2023-05-07T03:37:08;10.60;99.90
16515;DHT22;8370;52.556;7.970;2023-05-07T03:39:33;10.50;99.90
16515;DHT22;8370;52.556;7.970;2023-05-07T03:41:59;10.50;99.90
16515;DHT22;8370;52.556;7.970;2023-05-07T03:44:24;10.50;99.90
16515;DHT22;8370;52.556;7.970;2023-05-07T03:46:50;10.50;99.90
16515;DHT22;8370;52.556;7.970;2023-05-07T03:49:15;10.50;99.90
16515;DHT22;8370;52.556;7.970;2023-05-07T03:51:41;10.50;99.90
16515;DHT22;8370;52.556;7.970;2023-05-07T03:54:06;10.50;99.90
16515;DHT22;8370;52.556;7.970;2023-05-07T03:56:32;10.50;99.90
16515;DHT22;8370;52.556;7.970;2023-05-07T03:58:57;10.60;99.90
16515;DHT22;8370;52.556;7.970;2023-05-07T04:01:23;10.50;99.90
16515;DHT22;8370;52.556;7.970;2023-05-07T04:03:48;10.50;99.90
16515;DHT22;8370;52.556;7.970;2023-05-07T04:06:15;10.50;99.90
16515;DHT22;8370;52.556;7.970;2023-05-07T04:08:41;10.50;99.90
16515;DHT22;8370;52.556;7.970;2023-05-07T04:11:07;10.50;99.90
16515;DHT22;8370;52.556;7.970;2023-05-07T04:13:32;10.50;99.90
16515;DHT22;8370;52.556;7.970;2023-05-07T04:16:01;10.50;99.90
16515;DHT22;8370;52.556;7.970;2023-05-07T04:18:26;10.40;99.90
16515;DHT22;8370;52.556;7.970;2023-05-07T04:20:52;10.50;99.90
16515;DHT22;8370;52.556;7.970;2023-05-07T04:23:17;10.50;99.90
16515;DHT22;8370;52.556;7.970;2023-05-07T04:25:43;10.40;99.90
16515;DHT22;8370;52.556;7.970;2023-05-07T04:28:08;10.50;99.90
16515;DHT22;8370;52.556;7.970;2023-05-07T04:30:34;10.40;99.90
16515;DHT22;8370;52.556;7.970;2023-05-07T04:32:59;10.40;99.90
16515;DHT22;8370;52.556;7.970;2023-05-07T04:35:25;10.50;99.90
16515;DHT22;8370;52.556;7.970;2023-05-07T04:37:50;10.50;99.90
16515;DHT22;8370;52.556;7.970;2023-05-07T04:40:16;10.50;99.90
16515;DHT22;8370;52.556;7.970;2023-05-07T04:42:41;10.50;99.90
16515;DHT22;8370;52.556;7.970;2023-05-07T04:45:07;10.50;99.90
16515;DHT22;8370;52.556;7.970;2023-05-07T04:47:34;10.60;99.90
16515;DHT22;8370;52.556;7.970;2023-05-07T04:49:59;10.50;99.90
16515;DHT22;8370;52.556;7.970;2023-05-07T04:52:25;10.50;99.90
16515;DHT22;8370;52.556;7.970;2023-05-07T04:54:50;10.60;99.90
16515;DHT22;8370;52.556;7.970;2023-05-07T04:57:16;10.60;99.90
16515;DHT22;8370;52.556;7.970;2023-05-07T04:59:43;10.60;99.90
16515;DHT22;8370;52.556;7.970;2023-05-07T05:02:09;10.60;99.90
16515;DHT22;8370;52.556;7.970;2023-05-07T05:04:35;10.70;99.90
16515;DHT22;8370;52.556;7.970;2023-05-07T05:07:00;10.70;99.90
16515;DHT22;8370;52.556;7.970;2023-05-07T05:09:26;10.70;99.90
16515;DHT22;8370;52.556;7.970;2023-05-07T05:11:51;10.80;99.90
16515;DHT22;8370;52.556;7.970;2023-05-07T05:14:17;10.80;99.90
16515;DHT22;8370;52.556;7.970;2023-05-07T05:16:42;10.80;99.90
16515;DHT22;8370;52.556;7.970;2023-05-07T05:19:07;10.80;99.90
16515;DHT22;8370;52.556;7.970;2023-05-07T05:21:33;10.80;99.90
16515;DHT22;8370;52.556;7.970;2023-05-07T05:23:58;10.90;99.90
16515;DHT22;8370;52.556;7.970;2023-05-07T05:26:24;10.90;99.90
16515;DHT22;8370;52.556;7.970;2023-05-07T05:28:50;10.90;99.90
16515;DHT22;8370;52.556;7.970;2023-05-07T05:31:16;10.90;99.90
16515;DHT22;8370;52.556;7.970;2023-05-07T05:33:41;11.00;99.90
16515;DHT22;8370;52.556;7.970;2023-05-07T05:36:09;11.10;99.90
16515;DHT22;8370;52.556;7.970;2023-05-07T05:38:35;11.00;99.90
16515;DHT22;8370;52.556;7.970;2023-05-07T05:41:00;11.00;99.90
16515;DHT22;8370;52.556;7.970;2023-05-07T05:43:26;11.00;99.90
16515;DHT22;8370;52.556;7.970;2023-05-07T05:45:51;11.00;99.90
16515;DHT22;8370;52.556;7.970;2023-05-07T05:48:17;11.00;99.90
16515;DHT22;8370;52.556;7.970;2023-05-07T05:50:42;11.10;99.90
16515;DHT22;8370;52.556;7.970;2023-05-07T05:53:08;11.10;99.90
16515;DHT22;8370;52.556;7.970;2023-05-07T05:55:34;11.10;99.90
16515;DHT22;8370;52.556;7.970;2023-05-07T05:58:00;11.10;99.90
16515;DHT22;8370;52.556;7.970;2023-05-07T06:00:26;11.20;99.90
16515;DHT22;8370;52.556;7.970;2023-05-07T06:02:52;11.20;99.90
16515;DHT22;8370;52.556;7.970;2023-05-07T06:05:17;11.30;99.90
16515;DHT22;8370;52.556;7.970;2023-05-07T06:07:43;11.30;99.90
16515;DHT22;8370;52.556;7.970;2023-05-07T06:10:09;11.40;99.90
16515;DHT22;8370;52.556;7.970;2023-05-07T06:12:34;11.40;99.90
16515;DHT22;8370;52.556;7.970;2023-05-07T06:15:00;11.40;99.90
16515;DHT22;8370;52.556;7.970;2023-05-07T06:17:25;11.50;99.90
16515;DHT22;8370;52.556;7.970;2023-05-07T06:19:51;11.50;99.90
16515;DHT22;8370;52.556;7.970;2023-05-07T06:22:17;11.40;99.90
16515;DHT22;8370;52.556;7.970;2023-05-07T06:24:42;11.40;99.90
16515;DHT22;8370;52.556;7.970;2023-05-07T06:27:08;11.50;99.90
16515;DHT22;8370;52.556;7.970;2023-05-07T06:29:33;11.50;99.90
16515;DHT22;8370;52.556;7.970;2023-05-07T06:32:13;11.60;99.90
16515;DHT22;8370;52.556;7.970;2023-05-07T06:34:39;11.60;99.90
16515;DHT22;8370;52.556;7.970;2023-05-07T06:37:05;11.60;99.90
16515;DHT22;8370;52.556;7.970;2023-05-07T06:39:31;11.60;99.90
16515;DHT22;8370;52.556;7.970;2023-05-07T06:41:57;11.60;99.90
16515;DHT22;8370;52.556;7.970;2023-05-07T06:44:22;11.70;99.90
16515;DHT22;8370;52.556;7.970;2023-05-07T06:46:48;11.70;99.90
16515;DHT22;8370;52.556;7.970;2023-05-07T06:49:14;11.80;99.90
16515;DHT22;8370;52.556;7.970;2023-05-07T06:51:39;11.80;99.90
16515;DHT22;8370;52.556;7.970;2023-05-07T06:54:05;11.90;99.90
16515;DHT22;8370;52.556;7.970;2023-05-07T06:56:31;12.00;99.90
16515;DHT22;8370;52.556;7.970;2023-05-07T06:58:57;12.00;99.90
16515;DHT22;8370;52.556;7.970;2023-05-07T07:01:23;11.90;99.90
16515;DHT22;8370;52.556;7.970;2023-05-07T07:03:48;12.10;99.90
16515;DHT22;8370;52.556;7.970;2023-05-07T07:06:14;12.30;99.90
16515;DHT22;8370;52.556;7.970;2023-05-07T07:08:39;12.40;99.90
16515;DHT22;8370;52.556;7.970;2023-05-07T07:11:06;12.50;99.90
16515;DHT22;8370;52.556;7.970;2023-05-07T07:13:31;12.50;99.90
16515;DHT22;8370;52.556;7.970;2023-05-07T07:15:57;12.50;99.90
16515;DHT22;8370;52.556;7.970;2023-05-07T07:18:22;12.50;99.90
16515;DHT22;8370;52.556;7.970;2023-05-07T07:20:48;12.40;99.90
16515;DHT22;8370;52.556;7.970;2023-05-07T07:23:14;12.30;99.90
16515;DHT22;8370;52.556;7.970;2023-05-07T07:25:39;12.30;99.90
16515;DHT22;8370;52.556;7.970;2023-05-07T07:28:05;12.30;99.90
16515;DHT22;8370;52.556;7.970;2023-05-07T07:30:31;12.50;99.90
16515;DHT22;8370;52.556;7.970;2023-05-07T07:32:56;12.60;99.90
16515;DHT22;8370;52.556;7.970;2023-05-07T07:35:30;12.60;99.90
16515;DHT22;8370;52.556;7.970;2023-05-07T07:37:56;12.80;99.90
16515;DHT22;8370;52.556;7.970;2023-05-07T07:40:22;12.80;99.90
16515;DHT22;8370;52.556;7.970;2023-05-07T07:42:47;12.90;99.90
16515;DHT22;8370;52.556;7.970;2023-05-07T07:45:13;13.00;99.90
16515;DHT22;8370;52.556;7.970;2023-05-07T07:47:39;13.00;99.90
16515;DHT22;8370;52.556;7.970;2023-05-07T07:50:06;12.90;99.90
16515;DHT22;8370;52.556;7.970;2023-05-07T07:52:32;12.90;99.90
16515;DHT22;8370;52.556;7.970;2023-05-07T07:54:57;13.00;99.90
16515;DHT22;8370;52.556;7.970;2023-05-07T07:57:23;13.10;99.90
16515;DHT22;8370;52.556;7.970;2023-05-07T07:59:49;13.10;99.90
16515;DHT22;8370;52.556;7.970;2023-05-07T08:02:15;13.10;99.90
16515;DHT22;8370;52.556;7.970;2023-05-07T08:04:41;13.10;99.90
16515;DHT22;8370;52.556;7.970;2023-05-07T08:07:09;13.00;99.90
16515;DHT22;8370;52.556;7.970;2023-05-07T08:09:34;12.90;99.90
16515;DHT22;8370;52.556;7.970;2023-05-07T08:12:00;12.90;99.90
16515;DHT22;8370;52.556;7.970;2023-05-07T08:14:26;13.00;99.90
16515;DHT22;8370;52.556;7.970;2023-05-07T08:16:54;13.10;99.90
16515;DHT22;8370;52.556;7.970;2023-05-07T08:19:20;13.00;99.90
16515;DHT22;8370;52.556;7.970;2023-05-07T08:21:45;13.00;99.90
16515;DHT22;8370;52.556;7.970;2023-05-07T08:24:16;12.90;99.90
16515;DHT22;8370;52.556;7.970;2023-05-07T08:26:42;13.00;99.90
16515;DHT22;8370;52.556;7.970;2023-05-07T08:29:07;12.90;99.90
16515;DHT22;8370;52.556;7.970;2023-05-07T08:31:33;13.00;99.90
16515;DHT22;8370;52.556;7.970;2023-05-07T08:33:59;13.00;99.90
16515;DHT22;8370;52.556;7.970;2023-05-07T08:36:25;13.00;99.90
16515;DHT22;8370;52.556;7.970;2023-05-07T08:38:53;12.90;99.90
16515;DHT22;8370;52.556;7.970;2023-05-07T08:41:20;12.90;99.90
16515;DHT22;8370;52.556;7.970;2023-05-07T08:43:48;12.90;99.90
16515;DHT22;8370;52.556;7.970;2023-05-07T08:46:18;13.00;99.90
16515;DHT22;8370;52.556;7.970;2023-05-07T08:48:45;13.00;99.90
16515;DHT22;8370;52.556;7.970;2023-05-07T08:51:16;13.10;99.90
16515;DHT22;8370;52.556;7.970;2023-05-07T08:53:43;13.20;99.90
16515;DHT22;8370;52.556;7.970;2023-05-07T08:56:09;13.30;99.90
16515;DHT22;8370;52.556;7.970;2023-05-07T08:58:35;13.40;99.90
16515;DHT22;8370;52.556;7.970;2023-05-07T09:01:08;13.50;99.90
16515;DHT22;8370;52.556;7.970;2023-05-07T09:03:34;13.70;99.90
16515;DHT22;8370;52.556;7.970;2023-05-07T09:05:59;13.70;99.90
16515;DHT22;8370;52.556;7.970;2023-05-07T09:08:26;13.70;99.90
16515;DHT22;8370;52.556;7.970;2023-05-07T09:10:53;13.60;99.90
16515;DHT22;8370;52.556;7.970;2023-05-07T09:13:19;13.90;99.90
16515;DHT22;8370;52.556;7.970;2023-05-07T09:15:45;13.90;99.90
16515;DHT22;8370;52.556;7.970;2023-05-07T09:18:11;14.10;99.90
16515;DHT22;8370;52.556;7.970;2023-05-07T09:20:39;14.20;99.90
16515;DHT22;8370;52.556;7.970;2023-05-07T09:23:06;14.40;99.90
16515;DHT22;8370;52.556;7.970;2023-05-07T09:25:33;14.50;99.90
16515;DHT22;8370;52.556;7.970;2023-05-07T09:28:00;14.80;99.90
16515;DHT22;8370;52.556;7.970;2023-05-07T09:30:32;14.90;99.90
16515;DHT22;8370;52.556;7.970;2023-05-07T09:32:59;14.80;99.90
16515;DHT22;8370;52.556;7.970;2023-05-07T09:35:26;14.90;99.90
16515;DHT22;8370;52.556;7.970;2023-05-07T09:37:58;14.90;99.90
16515;DHT22;8370;52.556;7.970;2023-05-07T09:40:26;15.00;99.90
16515;DHT22;8370;52.556;7.970;2023-05-07T09:42:52;15.10;99.90
16515;DHT22;8370;52.556;7.970;2023-05-07T09:45:22;14.90;99.90
16515;DHT22;8370;52.556;7.970;2023-05-07T09:47:49;14.70;99.90
16515;DHT22;8370;52.556;7.970;2023-05-07T09:50:19;14.50;99.90
16515;DHT22;8370;52.556;7.970;2023-05-07T09:52:46;14.50;99.90
16515;DHT22;8370;52.556;7.970;2023-05-07T09:55:12;14.50;99.90
16515;DHT22;8370;52.556;7.970;2023-05-07T09:57:40;14.60;99.90
16515;DHT22;8370;52.556;7.970;2023-05-07T10:00:06;14.80;99.90
16515;DHT22;8370;52.556;7.970;2023-05-07T10:02:35;15.00;99.90
16515;DHT22;8370;52.556;7.970;2023-05-07T10:05:02;15.10;99.90
16515;DHT22;8370;52.556;7.970;2023-05-07T10:07:28;15.10;99.90
16515;DHT22;8370;52.556;7.970;2023-05-07T10:09:55;15.00;99.90
16515;DHT22;8370;52.556;7.970;2023-05-07T10:12:21;15.20;99.90
16515;DHT22;8370;52.556;7.970;2023-05-07T10:14:47;15.30;99.90
16515;DHT22;8370;52.556;7.970;2023-05-07T10:17:16;15.40;99.90
16515;DHT22;8370;52.556;7.970;2023-05-07T10:19:44;15.50;99.90
16515;DHT22;8370;52.556;7.970;2023-05-07T10:22:10;15.50;99.90
16515;DHT22;8370;52.556;7.970;2023-05-07T10:24:36;15.30;99.90
16515;DHT22;8370;52.556;7.970;2023-05-07T10:27:10;15.20;99.90
16515;DHT22;8370;52.556;7.970;2023-05-07T10:29:48;15.20;99.90
16515;DHT22;8370;52.556;7.970;2023-05-07T10:32:30;15.20;99.90
16515;DHT22;8370;52.556;7.970;2023-05-07T10:35:00;15.30;99.90
16515;DHT22;8370;52.556;7.970;2023-05-07T10:37:28;15.40;99.90
16515;DHT22;8370;52.556;7.970;2023-05-07T10:39:54;15.50;99.90
16515;DHT22;8370;52.556;7.970;2023-05-07T10:42:20;15.50;99.90
16515;DHT22;8370;52.556;7.970;2023-05-07T10:44:45;15.40;99.90
16515;DHT22;8370;52.556;7.970;2023-05-07T10:47:13;15.40;99.90
16515;DHT22;8370;52.556;7.970;2023-05-07T10:52:22;15.20;99.90
16515;DHT22;8370;52.556;7.970;2023-05-07T10:57:42;15.90;99.90
16515;DHT22;8370;52.556;7.970;2023-05-07T11:05:31;16.70;99.90
16515;DHT22;8370;52.556;7.970;2023-05-07T11:07:59;16.70;99.90
16515;DHT22;8370;52.556;7.970;2023-05-07T11:10:53;16.90;99.90
16515;DHT22;8370;52.556;7.970;2023-05-07T11:16:20;17.50;99.90
16515;DHT22;8370;52.556;7.970;2023-05-07T11:18:48;17.40;99.90
16515;DHT22;8370;52.556;7.970;2023-05-07T11:23:57;16.70;99.90
16515;DHT22;8370;52.556;7.970;2023-05-07T11:26:23;16.50;99.90
16515;DHT22;8370;52.556;7.970;2023-05-07T11:28:49;16.50;99.90
16515;DHT22;8370;52.556;7.970;2023-05-07T11:31:21;16.60;99.90
16515;DHT22;8370;52.556;7.970;2023-05-07T11:33:47;16.80;99.90
16515;DHT22;8370;52.556;7.970;2023-05-07T11:36:13;17.00;99.90
16515;DHT22;8370;52.556;7.970;2023-05-07T11:38:39;17.40;99.90
16515;DHT22;8370;52.556;7.970;2023-05-07T11:41:05;17.50;99.90
16515;DHT22;8370;52.556;7.970;2023-05-07T11:43:31;17.50;99.90
16515;DHT22;8370;52.556;7.970;2023-05-07T11:46:08;17.30;99.90
16515;DHT22;8370;52.556;7.970;2023-05-07T11:48:34;17.10;99.90
16515;DHT22;8370;52.556;7.970;2023-05-07T11:51:02;16.90;99.90
16515;DHT22;8370;52.556;7.970;2023-05-07T11:53:38;16.90;99.90
16515;DHT22;8370;52.556;7.970;2023-05-07T11:56:12;17.00;99.90
16515;DHT22;8370;52.556;7.970;2023-05-07T11:58:37;17.20;99.90
16515;DHT22;8370;52.556;7.970;2023-05-07T12:01:03;17.20;99.90
16515;DHT22;8370;52.556;7.970;2023-05-07T12:03:29;16.90;99.90
16515;DHT22;8370;52.556;7.970;2023-05-07T12:05:55;16.60;99.90
16515;DHT22;8370;52.556;7.970;2023-05-07T12:08:21;16.40;99.90
16515;DHT22;8370;52.556;7.970;2023-05-07T12:10:48;16.20;99.90
16515;DHT22;8370;52.556;7.970;2023-05-07T12:13:18;16.10;99.90
16515;DHT22;8370;52.556;7.970;2023-05-07T12:15:44;16.00;99.90
16515;DHT22;8370;52.556;7.970;2023-05-07T12:18:11;16.00;99.90
16515;DHT22;8370;52.556;7.970;2023-05-07T12:20:37;15.90;99.90
16515;DHT22;8370;52.556;7.970;2023-05-07T12:23:03;15.90;99.90
16515;DHT22;8370;52.556;7.970;2023-05-07T12:25:34;16.00;99.90
16515;DHT22;8370;52.556;7.970;2023-05-07T12:28:01;15.90;99.90
16515;DHT22;8370;52.556;7.970;2023-05-07T12:30:26;16.00;99.90
16515;DHT22;8370;52.556;7.970;2023-05-07T12:32:55;16.00;99.90
16515;DHT22;8370;52.556;7.970;2023-05-07T12:35:39;16.00;99.90
16515;DHT22;8370;52.556;7.970;2023-05-07T12:38:14;16.00;99.90
16515;DHT22;8370;52.556;7.970;2023-05-07T12:43:05;16.00;99.90
16515;DHT22;8370;52.556;7.970;2023-05-07T12:45:31;16.10;99.90
16515;DHT22;8370;52.556;7.970;2023-05-07T12:48:01;16.30;99.90
16515;DHT22;8370;52.556;7.970;2023-05-07T12:50:31;16.60;99.90
16515;DHT22;8370;52.556;7.970;2023-05-07T12:52:57;16.90;99.90
16515;DHT22;8370;52.556;7.970;2023-05-07T12:55:22;17.90;99.90
16515;DHT22;8370;52.556;7.970;2023-05-07T12:57:49;19.30;99.90
16515;DHT22;8370;52.556;7.970;2023-05-07T13:00:16;20.20;99.90
16515;DHT22;8370;52.556;7.970;2023-05-07T13:02:42;20.90;99.90
16515;DHT22;8370;52.556;7.970;2023-05-07T13:05:10;21.40;99.90
16515;DHT22;8370;52.556;7.970;2023-05-07T13:07:36;22.00;99.90
16515;DHT22;8370;52.556;7.970;2023-05-07T13:10:02;22.30;99.90
16515;DHT22;8370;52.556;7.970;2023-05-07T13:12:28;21.80;99.90
16515;DHT22;8370;52.556;7.970;2023-05-07T13:14:53;21.50;99.90
16515;DHT22;8370;52.556;7.970;2023-05-07T13:17:19;22.00;99.90
16515;DHT22;8370;52.556;7.970;2023-05-07T13:19:44;21.70;99.90
16515;DHT22;8370;52.556;7.970;2023-05-07T13:22:10;21.40;99.90
16515;DHT22;8370;52.556;7.970;2023-05-07T13:24:36;21.60;99.90
16515;DHT22;8370;52.556;7.970;2023-05-07T13:27:01;21.20;99.90
16515;DHT22;8370;52.556;7.970;2023-05-07T13:29:27;20.90;99.90
16515;DHT22;8370;52.556;7.970;2023-05-07T13:31:59;20.60;99.90
16515;DHT22;8370;52.556;7.970;2023-05-07T13:34:25;20.10;99.90
16515;DHT22;8370;52.556;7.970;2023-05-07T13:36:50;20.30;99.90
16515;DHT22;8370;52.556;7.970;2023-05-07T13:39:16;20.00;99.90
16515;DHT22;8370;52.556;7.970;2023-05-07T13:41:41;20.60;99.90
16515;DHT22;8370;52.556;7.970;2023-05-07T13:44:07;20.30;99.90
16515;DHT22;8370;52.556;7.970;2023-05-07T13:46:33;20.50;99.90
16515;DHT22;8370;52.556;7.970;2023-05-07T13:48:58;20.80;99.90
16515;DHT22;8370;52.556;7.970;2023-05-07T13:51:24;21.40;99.90
16515;DHT22;8370;52.556;7.970;2023-05-07T13:53:49;22.30;99.90
16515;DHT22;8370;52.556;7.970;2023-05-07T13:56:15;22.30;99.90
16515;DHT22;8370;52.556;7.970;2023-05-07T13:58:41;23.20;99.90
16515;DHT22;8370;52.556;7.970;2023-05-07T14:01:06;23.70;99.90
16515;DHT22;8370;52.556;7.970;2023-05-07T14:03:32;23.60;99.90
16515;DHT22;8370;52.556;7.970;2023-05-07T14:05:59;23.70;99.90
16515;DHT22;8370;52.556;7.970;2023-05-07T14:08:26;23.20;99.90
16515;DHT22;8370;52.556;7.970;2023-05-07T14:10:52;23.00;99.90
16515;DHT22;8370;52.556;7.970;2023-05-07T14:13:17;23.20;99.90
16515;DHT22;8370;52.556;7.970;2023-05-07T14:15:43;22.70;99.90
16515;DHT22;8370;52.556;7.970;2023-05-07T14:18:13;22.20;99.90
16515;DHT22;8370;52.556;7.970;2023-05-07T14:20:39;21.90;99.90
16515;DHT22;8370;52.556;7.970;2023-05-07T14:23:04;21.40;99.90
16515;DHT22;8370;52.556;7.970;2023-05-07T14:25:30;20.80;99.90
16515;DHT22;8370;52.556;7.970;2023-05-07T14:27:55;20.40;99.90
16515;DHT22;8370;52.556;7.970;2023-05-07T14:30:21;19.80;99.90
16515;DHT22;8370;52.556;7.970;2023-05-07T14:32:49;19.40;99.90
16515;DHT22;8370;52.556;7.970;2023-05-07T14:35:15;19.00;99.90
16515;DHT22;8370;52.556;7.970;2023-05-07T14:37:41;18.70;99.90
16515;DHT22;8370;52.556;7.970;2023-05-07T14:40:07;18.60;99.90
16515;DHT22;8370;52.556;7.970;2023-05-07T14:42:32;18.60;99.90
16515;DHT22;8370;52.556;7.970;2023-05-07T14:44:58;18.70;99.90
16515;DHT22;8370;52.556;7.970;2023-05-07T14:47:23;18.60;99.90
16515;DHT22;8370;52.556;7.970;2023-05-07T14:49:49;18.50;99.90
16515;DHT22;8370;52.556;7.970;2023-05-07T14:52:14;18.40;99.90
16515;DHT22;8370;52.556;7.970;2023-05-07T14:54:40;18.30;99.90
16515;DHT22;8370;52.556;7.970;2023-05-07T14:57:08;18.40;99.90
16515;DHT22;8370;52.556;7.970;2023-05-07T14:59:33;18.60;99.90
16515;DHT22;8370;52.556;7.970;2023-05-07T15:01:59;18.60;99.90
16515;DHT22;8370;52.556;7.970;2023-05-07T15:04:25;18.90;99.90
16515;DHT22;8370;52.556;7.970;2023-05-07T15:06:50;19.80;99.90
16515;DHT22;8370;52.556;7.970;2023-05-07T15:09:15;20.90;99.90
16515;DHT22;8370;52.556;7.970;2023-05-07T15:11:41;21.70;99.90
16515;DHT22;8370;52.556;7.970;2023-05-07T15:14:07;21.50;99.90
16515;DHT22;8370;52.556;7.970;2023-05-07T15:16:32;21.00;99.90
16515;DHT22;8370;52.556;7.970;2023-05-07T15:18:59;21.20;99.90
16515;DHT22;8370;52.556;7.970;2023-05-07T15:21:24;20.70;99.90
16515;DHT22;8370;52.556;7.970;2023-05-07T15:23:51;20.40;99.90
16515;DHT22;8370;52.556;7.970;2023-05-07T15:26:16;20.20;99.90
16515;DHT22;8370;52.556;7.970;2023-05-07T15:28:42;19.80;99.90
16515;DHT22;8370;52.556;7.970;2023-05-07T15:31:07;19.40;99.90
16515;DHT22;8370;52.556;7.970;2023-05-07T15:33:34;19.40;99.90
16515;DHT22;8370;52.556;7.970;2023-05-07T15:35:59;19.60;99.90
16515;DHT22;8370;52.556;7.970;2023-05-07T15:38:26;19.70;99.90
16515;DHT22;8370;52.556;7.970;2023-05-07T15:40:51;19.60;99.90
16515;DHT22;8370;52.556;7.970;2023-05-07T15:43:17;19.80;99.90
16515;DHT22;8370;52.556;7.970;2023-05-07T15:45:43;20.10;99.90
16515;DHT22;8370;52.556;7.970;2023-05-07T15:48:09;20.50;99.90
16515;DHT22;8370;52.556;7.970;2023-05-07T15:50:37;21.00;99.90
16515;DHT22;8370;52.556;7.970;2023-05-07T15:53:03;21.00;99.90
16515;DHT22;8370;52.556;7.970;2023-05-07T15:55:30;21.20;99.90
16515;DHT22;8370;52.556;7.970;2023-05-07T15:57:55;21.40;99.90
16515;DHT22;8370;52.556;7.970;2023-05-07T16:00:21;21.80;99.90